createdAt,value
2023-03-23T15:58:59.666Z,18.80
2023-03-23T16:01:29.639Z,18.60
2023-03-23T16:03:58.937Z,18.60
2023-03-23T16:06:26.542Z,18.50
2023-03-23T16:08:54.270Z,18.40
2023-03-23T16:11:22.608Z,18.40
2023-03-23T16:13:49.260Z,18.40
2023-03-23T16:16:17.979Z,18.30
2023-03-23T16:18:44.723Z,18.10
2023-03-23T16:21:11.375Z,18.00
2023-03-23T16:23:38.049Z,18.00
2023-03-23T16:26:04.777Z,17.90
2023-03-23T16:28:31.448Z,17.80
2023-03-23T16:30:58.090Z,17.80
2023-03-23T16:33:24.812Z,17.80
2023-03-23T16:35:51.572Z,17.70
2023-03-23T16:38:18.512Z,17.70
2023-03-23T16:40:46.151Z,17.60
2023-03-23T16:43:13.260Z,17.60
2023-03-23T16:45:43.910Z,17.50
2023-03-23T16:48:11.648Z,17.50
2023-03-23T16:50:38.452Z,17.40
2023-03-23T16:53:06.663Z,17.40
2023-03-23T16:55:33.462Z,17.20
2023-03-23T16:58:15.318Z,17.10
2023-03-23T17:00:47.724Z,17.00
2023-03-23T17:03:16.514Z,16.90
2023-03-23T17:05:43.699Z,16.80
2023-03-23T17:08:10.629Z,16.80
2023-03-23T17:10:37.621Z,16.70
2023-03-23T17:13:04.271Z,16.60
2023-03-23T17:15:31.033Z,16.60
2023-03-23T17:17:57.701Z,16.50
2023-03-23T17:20:24.456Z,16.40
2023-03-23T17:22:51.804Z,16.30
2023-03-23T17:25:20.583Z,16.20
2023-03-23T17:27:47.248Z,16.20
2023-03-23T17:30:13.890Z,16.10
2023-03-23T17:32:40.595Z,16.00
2023-03-23T17:35:07.379Z,15.90
2023-03-23T17:37:34.557Z,15.90
2023-03-23T17:40:01.298Z,15.80
2023-03-23T17:42:29.281Z,15.80
2023-03-23T17:44:56.024Z,15.70
2023-03-23T17:47:24.819Z,15.70
2023-03-23T17:49:51.551Z,15.70
2023-03-23T17:52:18.304Z,15.70
2023-03-23T17:54:45.203Z,15.60
2023-03-23T17:57:12.178Z,15.60
2023-03-23T17:59:39.078Z,15.50
2023-03-23T18:02:06.108Z,15.50
2023-03-23T18:04:32.799Z,15.50
2023-03-23T18:06:59.407Z,15.40
2023-03-23T18:09:26.454Z,15.40
2023-03-23T18:11:53.263Z,15.40
2023-03-23T18:14:20.240Z,15.30
2023-03-23T18:16:47.418Z,15.30
2023-03-23T18:19:15.794Z,15.30
2023-03-23T18:21:44.489Z,15.20
2023-03-23T18:24:12.813Z,15.20
2023-03-23T18:26:39.563Z,15.10
2023-03-23T18:29:08.300Z,15.00
2023-03-23T18:31:39.986Z,14.90
2023-03-23T18:34:07.350Z,14.80
2023-03-23T18:36:34.322Z,14.70
2023-03-23T18:39:01.122Z,14.70
2023-03-23T18:41:27.804Z,14.60
2023-03-23T18:43:56.271Z,14.60
2023-03-23T18:46:24.169Z,14.50
2023-03-23T18:48:51.131Z,14.50
2023-03-23T18:51:17.953Z,14.40
2023-03-23T18:53:44.615Z,14.30
2023-03-23T18:56:13.519Z,14.30
2023-03-23T18:58:40.234Z,14.20
2023-03-23T19:01:08.329Z,14.10
2023-03-23T19:03:36.191Z,14.00
2023-03-23T19:06:04.446Z,14.00
2023-03-23T19:08:31.862Z,14.00
2023-03-23T19:11:01.063Z,13.90
2023-03-23T19:13:31.466Z,13.90
2023-03-23T19:15:58.173Z,13.90
2023-03-23T19:18:24.889Z,13.90
2023-03-23T19:23:23.470Z,13.80
2023-03-23T19:25:52.301Z,13.80
2023-03-23T19:30:50.729Z,13.70
2023-03-23T19:33:18.620Z,13.60
2023-03-23T19:35:48.978Z,13.40
2023-03-23T19:38:19.430Z,13.40
2023-03-23T19:43:31.218Z,13.30
2023-03-23T19:46:14.606Z,13.20
2023-03-23T19:48:43.497Z,13.10
2023-03-23T19:51:11.518Z,13.00
2023-03-23T19:53:41.700Z,13.00
2023-03-23T19:59:29.775Z,12.90
2023-03-23T20:02:04.075Z,12.90
2023-03-23T20:04:31.013Z,12.80
2023-03-23T20:06:59.033Z,12.80
2023-03-23T20:09:26.165Z,12.70
2023-03-23T20:11:53.575Z,12.70
2023-03-23T20:14:25.799Z,12.60
2023-03-23T20:16:58.546Z,12.50
2023-03-23T20:22:48.137Z,12.50
2023-03-23T20:34:38.405Z,12.30
2023-03-23T20:41:48.572Z,12.30
2023-03-23T20:44:18.574Z,12.30
2023-03-23T20:50:24.477Z,12.30
2023-03-23T21:34:31.110Z,12.00
2023-03-23T21:46:37.074Z,11.80
2023-03-23T21:49:06.554Z,11.70
2023-03-23T21:51:35.065Z,11.60
2023-03-23T21:54:03.731Z,11.50
2023-03-23T21:56:32.031Z,11.40
2023-03-23T21:59:10.477Z,11.40
2023-03-23T22:11:34.602Z,11.50
2023-03-23T22:15:23.659Z,11.50
2023-03-23T22:17:09.595Z,11.50
2023-03-23T22:19:43.452Z,11.60
2023-03-23T22:22:11.331Z,11.60
2023-03-23T22:24:38.042Z,11.60
2023-03-23T22:27:04.907Z,11.50
2023-03-23T22:29:31.847Z,11.40
2023-03-23T22:31:58.486Z,11.40
2023-03-23T22:34:25.336Z,11.40
2023-03-23T22:36:52.534Z,11.30
2023-03-23T22:39:20.323Z,11.30
2023-03-23T22:41:47.020Z,11.20
2023-03-23T22:44:14.879Z,11.20
2023-03-23T22:46:42.182Z,11.20
2023-03-23T22:49:16.155Z,11.20
2023-03-23T22:51:46.817Z,11.20
2023-03-23T22:54:13.514Z,11.20
2023-03-23T22:56:40.417Z,11.20
2023-03-23T22:59:07.384Z,11.20
2023-03-23T23:01:34.466Z,11.10
2023-03-23T23:04:03.149Z,11.20
2023-03-23T23:06:29.957Z,11.10
2023-03-23T23:09:12.209Z,11.00
2023-03-23T23:11:39.332Z,10.90
2023-03-23T23:14:06.245Z,10.90
2023-03-23T23:16:33.274Z,11.00
2023-03-23T23:19:00.294Z,11.00
2023-03-23T23:21:27.169Z,11.00
2023-03-23T23:23:53.937Z,11.00
2023-03-23T23:26:20.894Z,11.00
2023-03-23T23:28:48.609Z,10.90
2023-03-23T23:31:19.597Z,10.90
2023-03-23T23:33:46.309Z,10.80
2023-03-23T23:36:14.485Z,10.80
2023-03-23T23:38:41.112Z,10.80
2023-03-23T23:41:18.468Z,10.80
2023-03-23T23:43:45.551Z,10.80
2023-03-23T23:46:12.394Z,10.80
2023-03-23T23:48:39.244Z,10.80
2023-03-23T23:51:06.190Z,10.80
2023-03-23T23:53:33.937Z,10.70
2023-03-23T23:56:05.464Z,10.70
2023-03-23T23:58:32.201Z,10.70
